Time;durP1;ratioP1;P1;durP2;ratioP2;P2;SDS_P1;SDS_P2;PMS_P1;PMS_P2;Temp;Humidity;BMP_temperature;BMP_pressure;BME280_temperature;BME280_humidity;BME280_pressure;Samples;Min_cycle;Max_cycle;Signal;HPM_P1;HPM_P2
2021/06/02 00:01:42;;;;;;;;;;;19.70;52.60;;;;;;4996210;28;74473;-67
2021/06/02 00:04:08;;;;;;;;;;;19.70;52.80;;;;;;4995751;28;75216;-66
2021/06/02 00:06:35;;;;;;;;;;;19.70;52.90;;;;;;4995698;28;75158;-66
2021/06/02 00:09:01;;;;;;;;;;;19.70;52.90;;;;;;4995879;28;75209;-67
2021/06/02 00:11:26;;;;;;;;;;;19.60;53.00;;;;;;4995658;28;75104;-66
2021/06/02 00:13:53;;;;;;;;;;;19.50;53.10;;;;;;4995576;28;74782;-66
2021/06/02 00:16:19;;;;;;;;;;;19.60;53.30;;;;;;4995648;28;75198;-67
2021/06/02 00:18:44;;;;;;;;;;;19.60;53.30;;;;;;4994373;28;77119;-67
2021/06/02 00:21:10;;;;;;;;;;;19.60;53.30;;;;;;4993976;28;78084;-68
2021/06/02 00:23:36;;;;;;;;;;;19.50;53.80;;;;;;4995406;28;75668;-67
2021/06/02 00:26:02;;;;;;;;;;;19.50;53.60;;;;;;5010781;28;75329;-67
2021/06/02 00:28:28;;;;;;;;;;;19.50;53.30;;;;;;4993393;28;77293;-67
2021/06/02 00:30:54;;;;;;;;;;;19.40;53.60;;;;;;4994053;28;76505;-65
2021/06/02 00:33:19;;;;;;;;;;;19.40;54.30;;;;;;4995223;28;75156;-66
2021/06/02 00:35:45;;;;;;;;;;;19.30;54.20;;;;;;4993652;28;77341;-65
2021/06/02 00:38:12;;;;;;;;;;;19.30;54.20;;;;;;4995364;28;75166;-68
2021/06/02 00:40:48;;;;;;;;;;;19.30;54.20;;;;;;4993638;28;74560;-68
2021/06/02 00:43:15;;;;;;;;;;;19.20;54.40;;;;;;4993392;28;75659;-69
2021/06/02 00:45:43;;;;;;;;;;;19.10;54.60;;;;;;4995142;28;74626;-68
2021/06/02 00:48:12;;;;;;;;;;;19.10;54.70;;;;;;4995291;28;75187;-68
2021/06/02 00:50:37;;;;;;;;;;;19.10;54.90;;;;;;4995291;28;75225;-68
2021/06/02 00:53:04;;;;;;;;;;;19.20;54.80;;;;;;4993391;28;75894;-69
2021/06/02 00:55:29;;;;;;;;;;;19.10;54.60;;;;;;4993830;28;75801;-69
2021/06/02 00:57:56;;;;;;;;;;;19.10;54.80;;;;;;4994837;28;75766;-69
2021/06/02 01:00:23;;;;;;;;;;;19.10;55.50;;;;;;4995057;28;75730;-69
2021/06/02 01:02:51;;;;;;;;;;;19.10;55.00;;;;;;4993336;28;77514;-68
2021/06/02 01:05:17;;;;;;;;;;;19.00;55.30;;;;;;4995010;28;75171;-67
2021/06/02 01:07:44;;;;;;;;;;;18.90;54.80;;;;;;4993516;28;77504;-68
2021/06/02 01:10:09;;;;;;;;;;;18.90;56.20;;;;;;4994512;28;75051;-66
2021/06/02 01:12:35;;;;;;;;;;;18.70;56.60;;;;;;4992896;28;77041;-67
2021/06/02 01:15:01;;;;;;;;;;;18.60;56.30;;;;;;4994210;28;75217;-68
2021/06/02 01:17:27;;;;;;;;;;;18.60;56.30;;;;;;4994622;28;74990;-66
2021/06/02 01:19:54;;;;;;;;;;;18.70;56.20;;;;;;4992961;28;75340;-66
2021/06/02 01:22:20;;;;;;;;;;;18.70;56.20;;;;;;4992965;28;76337;-66
2021/06/02 01:24:45;;;;;;;;;;;18.70;56.10;;;;;;4993134;28;75573;-67
2021/06/02 01:27:12;;;;;;;;;;;18.60;56.20;;;;;;4992683;28;77403;-68
2021/06/02 01:29:40;;;;;;;;;;;18.60;56.20;;;;;;4993023;28;75375;-68
2021/06/02 01:32:05;;;;;;;;;;;18.60;56.40;;;;;;4992733;28;77809;-68
2021/06/02 01:34:38;;;;;;;;;;;18.50;57.60;;;;;;4992813;28;75715;-68
2021/06/02 01:37:03;;;;;;;;;;;18.40;57.60;;;;;;5009724;28;78268;-66
2021/06/02 01:39:41;;;;;;;;;;;18.30;57.70;;;;;;4992720;28;74684;-69
2021/06/02 01:42:10;;;;;;;;;;;18.30;57.70;;;;;;4993809;28;75089;-68
2021/06/02 01:44:36;;;;;;;;;;;18.40;58.00;;;;;;4993739;28;74686;-68
2021/06/02 01:47:10;;;;;;;;;;;18.40;57.90;;;;;;4992908;28;77028;-65
2021/06/02 01:49:54;;;;;;;;;;;18.40;57.80;;;;;;4994081;28;75408;-67
2021/06/02 01:52:39;;;;;;;;;;;18.40;57.70;;;;;;4994220;28;75102;-66
2021/06/02 01:55:23;;;;;;;;;;;18.40;57.80;;;;;;4992230;28;76302;-68
2021/06/02 01:57:51;;;;;;;;;;;18.40;57.80;;;;;;4993971;28;75418;-68
2021/06/02 02:00:26;;;;;;;;;;;18.40;58.20;;;;;;4993846;28;75576;-68
2021/06/02 02:02:54;;;;;;;;;;;18.40;58.30;;;;;;4992414;28;75126;-67
2021/06/02 02:05:39;;;;;;;;;;;18.40;58.30;;;;;;4994169;28;74460;-68
2021/06/02 02:08:07;;;;;;;;;;;18.40;58.00;;;;;;4992427;28;78242;-67
2021/06/02 02:10:41;;;;;;;;;;;18.40;58.00;;;;;;4993879;28;75614;-67
2021/06/02 02:13:26;;;;;;;;;;;18.30;58.40;;;;;;4993404;28;75823;-66
2021/06/02 02:16:12;;;;;;;;;;;18.30;58.50;;;;;;4992130;28;77363;-66
2021/06/02 02:18:47;;;;;;;;;;;18.30;58.60;;;;;;5008121;28;77997;-66
2021/06/02 02:21:31;;;;;;;;;;;18.20;58.60;;;;;;4993960;28;74613;-67
2021/06/02 02:23:56;;;;;;;;;;;18.20;58.80;;;;;;4991802;28;75413;-67
2021/06/02 02:26:26;;;;;;;;;;;18.20;58.80;;;;;;4992067;28;76689;-66
2021/06/02 02:28:54;;;;;;;;;;;18.20;58.90;;;;;;4991670;28;75534;-66
2021/06/02 02:31:35;;;;;;;;;;;18.10;58.80;;;;;;5008539;28;77070;-66
2021/06/02 02:34:19;;;;;;;;;;;18.10;58.90;;;;;;4993373;28;75126;-66
2021/06/02 02:36:48;;;;;;;;;;;18.00;59.00;;;;;;4993427;28;75153;-65
2021/06/02 02:39:18;;;;;;;;;;;18.00;59.00;;;;;;4993513;28;75761;-65
2021/06/02 02:42:22;;;;;;;;;;;17.90;59.10;;;;;;4993323;28;74660;-65
2021/06/02 02:45:06;;;;;;;;;;;17.90;59.30;;;;;;5010177;28;76117;-65
2021/06/02 02:47:45;;;;;;;;;;;17.90;59.40;;;;;;5010822;28;75162;-64
2021/06/02 02:50:37;;;;;;;;;;;17.90;59.30;;;;;;4991383;28;77043;-64
2021/06/02 02:53:03;;;;;;;;;;;17.90;59.50;;;;;;5007561;28;75386;-64
2021/06/02 02:55:30;;;;;;;;;;;17.90;59.60;;;;;;4991192;28;74723;-65
2021/06/02 02:58:05;;;;;;;;;;;17.90;59.60;;;;;;4991338;28;78078;-64
2021/06/02 03:00:31;;;;;;;;;;;17.80;59.80;;;;;;4993221;28;75225;-66
2021/06/02 03:03:02;;;;;;;;;;;17.80;59.70;;;;;;4991284;28;78254;-66
2021/06/02 03:05:36;;;;;;;;;;;17.70;60.00;;;;;;4992935;28;75033;-66
2021/06/02 03:08:17;;;;;;;;;;;17.60;60.00;;;;;;4991420;28;78066;-65
2021/06/02 03:10:45;;;;;;;;;;;17.50;60.20;;;;;;4991110;28;75498;-65
2021/06/02 03:13:23;;;;;;;;;;;17.50;60.30;;;;;;4992573;28;74970;-66
2021/06/02 03:15:49;;;;;;;;;;;17.50;60.30;;;;;;4991300;28;78312;-68
2021/06/02 03:18:18;;;;;;;;;;;17.50;60.40;;;;;;4992134;28;75126;-67
2021/06/02 03:20:46;;;;;;;;;;;17.40;60.50;;;;;;4993265;28;74696;-68
2021/06/02 03:23:18;;;;;;;;;;;17.40;60.70;;;;;;4992841;28;75306;-67
2021/06/02 03:26:07;;;;;;;;;;;17.40;60.90;;;;;;4991299;28;78006;-67
2021/06/02 03:28:45;;;;;;;;;;;17.40;60.90;;;;;;5007002;28;76724;-66
2021/06/02 03:31:10;;;;;;;;;;;17.40;60.90;;;;;;4993070;28;74402;-67
2021/06/02 03:34:08;;;;;;;;;;;17.40;61.20;;;;;;4992390;28;74654;-67
2021/06/02 03:36:42;;;;;;;;;;;17.40;62.00;;;;;;5007019;28;78414;-67
2021/06/02 03:39:26;;;;;;;;;;;17.30;62.90;;;;;;4991070;28;74653;-66
2021/06/02 03:41:59;;;;;;;;;;;17.30;63.10;;;;;;4993298;28;75074;-65
2021/06/02 03:44:43;;;;;;;;;;;17.20;62.50;;;;;;4992319;28;74983;-66
2021/06/02 03:47:28;;;;;;;;;;;17.20;62.40;;;;;;4991027;28;78014;-66
2021/06/02 03:49:59;;;;;;;;;;;17.20;62.20;;;;;;4992498;28;75138;-66
2021/06/02 03:52:36;;;;;;;;;;;17.20;62.50;;;;;;4992697;28;75627;-66
2021/06/02 03:55:09;;;;;;;;;;;17.20;62.30;;;;;;4990628;28;76837;-65
2021/06/02 03:57:38;;;;;;;;;;;17.20;62.40;;;;;;5007362;28;77817;-65
2021/06/02 04:00:03;;;;;;;;;;;17.20;62.50;;;;;;4992469;28;75029;-66
2021/06/02 04:02:41;;;;;;;;;;;17.20;62.50;;;;;;4992143;28;75359;-66
2021/06/02 04:05:13;;;;;;;;;;;17.20;62.40;;;;;;4990836;28;76295;-66
2021/06/02 04:07:49;;;;;;;;;;;17.20;62.50;;;;;;4990853;28;76610;-67
2021/06/02 04:10:28;;;;;;;;;;;17.20;62.70;;;;;;4992570;28;74471;-66
2021/06/02 04:13:20;;;;;;;;;;;17.10;62.60;;;;;;4991815;28;75887;-67
2021/06/02 04:15:47;;;;;;;;;;;17.10;62.60;;;;;;4992428;28;74597;-67
2021/06/02 04:18:14;;;;;;;;;;;17.00;62.30;;;;;;4992208;28;75749;-66
2021/06/02 04:20:43;;;;;;;;;;;17.00;62.40;;;;;;4991381;28;76824;-66
2021/06/02 04:23:08;;;;;;;;;;;17.00;62.70;;;;;;4992577;28;75269;-66
2021/06/02 04:25:35;;;;;;;;;;;17.00;63.00;;;;;;5006977;28;77422;-66
2021/06/02 04:28:01;;;;;;;;;;;17.00;63.10;;;;;;4992185;28;75298;-66
2021/06/02 04:30:30;;;;;;;;;;;16.90;62.80;;;;;;4994661;28;75115;-66
2021/06/02 04:32:58;;;;;;;;;;;16.90;63.20;;;;;;4995703;28;75229;-66
2021/06/02 04:35:24;;;;;;;;;;;16.90;63.10;;;;;;4995324;28;75186;-66
2021/06/02 04:37:51;;;;;;;;;;;16.90;63.40;;;;;;4995769;28;74475;-65
2021/06/02 04:40:16;;;;;;;;;;;16.90;63.50;;;;;;4996087;28;75403;-67
2021/06/02 04:42:42;;;;;;;;;;;16.80;63.40;;;;;;4995058;28;75897;-68
2021/06/02 04:45:13;;;;;;;;;;;16.80;63.40;;;;;;4994387;28;75405;-67
2021/06/02 04:47:39;;;;;;;;;;;16.80;63.40;;;;;;4993585;28;75471;-67
2021/06/02 04:50:17;;;;;;;;;;;16.80;63.30;;;;;;4995272;28;75464;-67
2021/06/02 04:53:01;;;;;;;;;;;16.80;63.30;;;;;;4994670;28;74605;-68
2021/06/02 04:55:34;;;;;;;;;;;16.80;63.50;;;;;;4994097;28;77903;-67
2021/06/02 04:58:27;;;;;;;;;;;16.80;63.70;;;;;;4995020;28;75796;-67
2021/06/02 05:01:05;;;;;;;;;;;16.80;63.60;;;;;;4995768;28;74564;-67
2021/06/02 05:03:51;;;;;;;;;;;16.80;63.40;;;;;;4993593;28;74698;-66
2021/06/02 05:06:36;;;;;;;;;;;16.80;63.50;;;;;;4993375;28;74715;-66
2021/06/02 05:09:02;;;;;;;;;;;16.70;63.60;;;;;;4994799;28;75196;-67
2021/06/02 05:11:56;;;;;;;;;;;16.80;63.50;;;;;;4994525;28;74447;-67
2021/06/02 05:14:28;;;;;;;;;;;16.70;63.60;;;;;;4992896;28;77499;-66
2021/06/02 05:16:53;;;;;;;;;;;16.80;63.80;;;;;;4993108;28;77198;-67
2021/06/02 05:22:12;;;;;;;;;;;16.80;63.40;;;;;;4992835;28;75034;-67
2021/06/02 05:24:57;;;;;;;;;;;16.80;63.90;;;;;;4994342;28;74648;-68
2021/06/02 05:27:36;;;;;;;;;;;16.80;64.60;;;;;;4995043;28;74549;-66
2021/06/02 05:30:20;;;;;;;;;;;16.90;65.20;;;;;;4993141;28;75144;-67
2021/06/02 05:33:05;;;;;;;;;;;16.80;64.90;;;;;;4990700;28;75266;-67
2021/06/02 05:35:44;;;;;;;;;;;16.80;64.50;;;;;;4973972;28;75699;-66
2021/06/02 05:38:19;;;;;;;;;;;16.80;64.70;;;;;;5002748;28;76198;-67
2021/06/02 05:41:04;;;;;;;;;;;16.80;64.90;;;;;;4992049;28;77051;-67
2021/06/02 05:43:48;;;;;;;;;;;16.90;64.90;;;;;;4993950;28;75185;-67
2021/06/02 05:46:32;;;;;;;;;;;16.90;64.30;;;;;;4992491;28;78204;-66
2021/06/02 05:48:58;;;;;;;;;;;17.00;64.30;;;;;;4994218;28;75065;-67
2021/06/02 05:51:23;;;;;;;;;;;17.00;64.40;;;;;;4985532;28;75075;-67
2021/06/02 05:54:08;;;;;;;;;;;16.90;64.20;;;;;;4974280;28;76399;-66
2021/06/02 05:56:43;;;;;;;;;;;17.00;64.30;;;;;;4971194;28;77141;-65
2021/06/02 05:59:27;;;;;;;;;;;17.10;64.00;;;;;;4972443;28;77053;-65
2021/06/02 06:01:57;;;;;;;;;;;17.10;63.90;;;;;;4974228;28;75278;-67
2021/06/02 06:04:35;;;;;;;;;;;17.20;64.00;;;;;;4972378;28;75228;-65
2021/06/02 06:07:04;;;;;;;;;;;17.30;63.80;;;;;;4973881;28;75863;-66
2021/06/02 06:09:49;;;;;;;;;;;17.40;63.60;;;;;;4972764;28;76039;-65
2021/06/02 06:12:32;;;;;;;;;;;17.40;63.20;;;;;;4974073;28;75272;-65
2021/06/02 06:15:04;;;;;;;;;;;17.50;63.30;;;;;;4991042;28;74665;-65
2021/06/02 06:17:35;;;;;;;;;;;17.60;62.80;;;;;;4989134;28;75751;-65
2021/06/02 06:20:04;;;;;;;;;;;17.50;62.50;;;;;;4987687;28;74795;-66
2021/06/02 06:22:48;;;;;;;;;;;17.40;62.60;;;;;;4993534;28;75881;-66
2021/06/02 06:25:20;;;;;;;;;;;17.40;62.80;;;;;;4992778;28;74777;-67
2021/06/02 06:27:48;;;;;;;;;;;17.50;62.70;;;;;;4991794;28;75714;-67
2021/06/02 06:30:22;;;;;;;;;;;17.50;62.90;;;;;;4991956;28;75047;-67
2021/06/02 06:32:50;;;;;;;;;;;17.60;62.90;;;;;;4991220;28;75309;-67
2021/06/02 06:35:15;;;;;;;;;;;17.60;62.70;;;;;;4973744;28;74739;-67
2021/06/02 06:37:46;;;;;;;;;;;17.70;62.50;;;;;;4972831;28;74574;-67
2021/06/02 06:40:26;;;;;;;;;;;17.70;62.40;;;;;;4971731;28;75036;-67
2021/06/02 06:42:53;;;;;;;;;;;17.80;62.70;;;;;;4972825;28;75187;-67
2021/06/02 06:45:27;;;;;;;;;;;17.90;62.60;;;;;;4971242;28;77431;-66
2021/06/02 06:47:53;;;;;;;;;;;17.90;62.10;;;;;;4971446;28;78117;-67
2021/06/02 06:50:20;;;;;;;;;;;17.90;62.00;;;;;;4971767;28;76140;-66
2021/06/02 06:52:50;;;;;;;;;;;17.90;61.90;;;;;;4970895;28;77217;-66
2021/06/02 06:55:16;;;;;;;;;;;17.90;61.80;;;;;;4972955;28;75048;-67
2021/06/02 06:57:43;;;;;;;;;;;18.00;61.90;;;;;;4972650;28;75686;-66
2021/06/02 07:00:10;;;;;;;;;;;18.10;61.40;;;;;;4971035;28;75809;-67
2021/06/02 07:02:37;;;;;;;;;;;18.10;61.60;;;;;;4972697;28;75226;-67
2021/06/02 07:05:04;;;;;;;;;;;18.10;61.50;;;;;;4972517;28;75096;-67
2021/06/02 07:07:30;;;;;;;;;;;18.20;61.20;;;;;;4972712;28;75190;-66
2021/06/02 07:09:56;;;;;;;;;;;18.20;61.00;;;;;;4981038;28;78176;-67
2021/06/02 07:12:22;;;;;;;;;;;18.10;61.00;;;;;;4992374;28;75139;-67
2021/06/02 07:14:51;;;;;;;;;;;18.10;61.20;;;;;;4990949;28;75371;-67
2021/06/02 07:17:17;;;;;;;;;;;18.00;61.40;;;;;;4991119;28;75454;-67
2021/06/02 07:19:48;;;;;;;;;;;18.10;61.50;;;;;;4987213;28;77619;-67
2021/06/02 07:22:18;;;;;;;;;;;18.00;61.80;;;;;;4979723;28;76882;-66
2021/06/02 07:24:44;;;;;;;;;;;17.90;62.10;;;;;;4992120;28;74971;-67
2021/06/02 07:27:09;;;;;;;;;;;17.90;62.30;;;;;;4992588;28;75453;-66
2021/06/02 07:29:35;;;;;;;;;;;18.00;62.20;;;;;;4982977;28;75602;-67
2021/06/02 07:32:00;;;;;;;;;;;18.10;61.90;;;;;;4972884;28;74926;-66
2021/06/02 07:34:26;;;;;;;;;;;18.30;61.80;;;;;;4971923;28;75280;-67
2021/06/02 07:36:52;;;;;;;;;;;18.40;61.10;;;;;;4971410;28;76429;-67
2021/06/02 07:39:17;;;;;;;;;;;18.40;61.00;;;;;;4970854;28;77342;-68
2021/06/02 07:41:43;;;;;;;;;;;18.40;61.30;;;;;;4971269;28;75192;-67
2021/06/02 07:44:09;;;;;;;;;;;18.50;60.80;;;;;;4970929;28;77164;-67
2021/06/02 07:46:34;;;;;;;;;;;18.60;61.00;;;;;;4971112;28;76641;-67
2021/06/02 07:49:01;;;;;;;;;;;18.60;60.90;;;;;;4972558;28;74974;-68
2021/06/02 07:51:26;;;;;;;;;;;18.60;60.90;;;;;;4970938;28;75721;-67
2021/06/02 07:53:52;;;;;;;;;;;18.80;60.50;;;;;;4978657;28;75723;-67
2021/06/02 07:56:18;;;;;;;;;;;18.80;60.10;;;;;;4981765;28;75680;-68
2021/06/02 07:58:43;;;;;;;;;;;18.80;60.00;;;;;;4990724;28;75379;-68
2021/06/02 08:01:09;;;;;;;;;;;18.80;60.10;;;;;;4990808;28;78229;-68
2021/06/02 08:03:34;;;;;;;;;;;18.90;60.20;;;;;;4992224;28;74545;-68
2021/06/02 08:06:00;;;;;;;;;;;19.10;59.90;;;;;;4978891;28;74491;-67
2021/06/02 08:08:26;;;;;;;;;;;19.20;59.10;;;;;;4974248;28;77172;-66
2021/06/02 08:10:51;;;;;;;;;;;19.30;58.90;;;;;;4976400;28;74959;-67
2021/06/02 08:13:17;;;;;;;;;;;19.40;58.50;;;;;;4975819;28;75036;-67
2021/06/02 08:15:42;;;;;;;;;;;19.40;58.40;;;;;;4973530;28;77200;-68
2021/06/02 08:18:08;;;;;;;;;;;19.50;58.40;;;;;;4977949;28;75092;-68
2021/06/02 08:20:34;;;;;;;;;;;19.60;58.40;;;;;;4975513;28;75763;-67
2021/06/02 08:22:59;;;;;;;;;;;19.70;57.90;;;;;;4975255;28;74726;-67
2021/06/02 08:25:25;;;;;;;;;;;19.90;57.80;;;;;;4976250;28;76800;-67
2021/06/02 08:27:51;;;;;;;;;;;20.00;57.30;;;;;;4979440;28;74798;-68
2021/06/02 08:30:17;;;;;;;;;;;20.10;56.70;;;;;;4985992;28;77049;-67
2021/06/02 08:32:43;;;;;;;;;;;20.20;56.30;;;;;;4989380;28;76888;-67
2021/06/02 08:35:09;;;;;;;;;;;20.20;56.10;;;;;;4986109;28;75043;-68
2021/06/02 08:37:35;;;;;;;;;;;20.20;55.50;;;;;;4981316;28;75625;-67
2021/06/02 08:40:00;;;;;;;;;;;20.20;56.20;;;;;;4976178;28;76159;-67
2021/06/02 08:42:26;;;;;;;;;;;20.30;56.10;;;;;;4973935;28;74862;-67
2021/06/02 08:44:52;;;;;;;;;;;20.40;55.80;;;;;;4976313;28;78467;-67
2021/06/02 08:47:18;;;;;;;;;;;20.40;55.70;;;;;;4993667;28;78357;-67
2021/06/02 08:49:44;;;;;;;;;;;20.40;55.80;;;;;;4993485;28;76288;-67
2021/06/02 08:52:10;;;;;;;;;;;20.40;55.60;;;;;;4993177;28;74711;-67
2021/06/02 08:54:36;;;;;;;;;;;20.40;55.60;;;;;;4993224;28;74556;-67
2021/06/02 08:57:04;;;;;;;;;;;20.50;55.70;;;;;;4994146;28;74943;-67
2021/06/02 08:59:30;;;;;;;;;;;20.50;55.60;;;;;;4992464;28;76261;-66
2021/06/02 09:01:58;;;;;;;;;;;20.60;55.30;;;;;;4994123;28;93958;-66
2021/06/02 09:04:25;;;;;;;;;;;20.60;55.00;;;;;;4993408;28;74649;-68
2021/06/02 09:06:50;;;;;;;;;;;20.70;55.20;;;;;;4994302;28;75182;-69
2021/06/02 09:09:17;;;;;;;;;;;20.90;55.40;;;;;;4994261;28;75151;-66
2021/06/02 09:11:44;;;;;;;;;;;21.00;54.70;;;;;;4983181;28;76749;-67
2021/06/02 09:14:22;;;;;;;;;;;21.30;54.50;;;;;;4989333;28;75601;-67
2021/06/02 09:16:48;;;;;;;;;;;21.40;53.90;;;;;;4993408;28;75032;-67
2021/06/02 09:19:13;;;;;;;;;;;21.50;53.60;;;;;;4992829;28;74604;-67
2021/06/02 09:21:39;;;;;;;;;;;21.50;52.80;;;;;;4993292;28;74644;-67
2021/06/02 09:24:06;;;;;;;;;;;21.40;52.80;;;;;;4993991;28;75214;-66
2021/06/02 09:26:32;;;;;;;;;;;21.50;52.60;;;;;;4994090;28;76112;-67
2021/06/02 09:29:11;;;;;;;;;;;21.60;52.70;;;;;;4992612;28;76532;-66
2021/06/02 09:31:38;;;;;;;;;;;21.70;52.50;;;;;;4992823;28;76857;-67
2021/06/02 09:34:06;;;;;;;;;;;21.70;52.30;;;;;;4993373;28;75303;-66
2021/06/02 09:36:34;;;;;;;;;;;21.70;52.20;;;;;;4992481;28;77244;-67
2021/06/02 09:39:03;;;;;;;;;;;21.80;52.00;;;;;;4992546;28;75817;-68
2021/06/02 09:41:29;;;;;;;;;;;21.90;51.20;;;;;;4992174;28;76592;-67
2021/06/02 09:43:57;;;;;;;;;;;22.10;51.50;;;;;;4992375;28;76682;-67
2021/06/02 09:46:22;;;;;;;;;;;22.30;51.50;;;;;;4983013;28;77020;-66
2021/06/02 09:48:48;;;;;;;;;;;22.40;50.40;;;;;;4973069;28;77264;-67
2021/06/02 09:51:29;;;;;;;;;;;22.50;51.60;;;;;;4972472;28;76182;-66
2021/06/02 09:53:59;;;;;;;;;;;22.60;50.00;;;;;;4972703;28;74884;-67
2021/06/02 09:56:31;;;;;;;;;;;22.40;49.00;;;;;;4972337;28;74732;-66
2021/06/02 09:58:57;;;;;;;;;;;22.20;50.10;;;;;;4973808;28;75637;-66
2021/06/02 10:01:22;;;;;;;;;;;22.40;49.80;;;;;;4973958;28;74492;-67
2021/06/02 10:03:48;;;;;;;;;;;22.50;49.20;;;;;;4972500;28;74622;-67
2021/06/02 10:06:14;;;;;;;;;;;22.70;48.10;;;;;;4973715;28;75295;-67
2021/06/02 10:08:41;;;;;;;;;;;22.90;48.30;;;;;;4972911;28;76444;-67
2021/06/02 10:11:11;;;;;;;;;;;22.90;48.00;;;;;;4990252;28;75436;-67
2021/06/02 10:13:37;;;;;;;;;;;23.20;48.70;;;;;;4970300;28;76594;-66
2021/06/02 10:16:03;;;;;;;;;;;23.40;47.50;;;;;;4977274;28;75240;-66
2021/06/02 10:18:39;;;;;;;;;;;23.50;47.00;;;;;;4992058;28;75271;-66
2021/06/02 10:21:13;;;;;;;;;;;23.50;46.20;;;;;;4991744;28;75857;-66
2021/06/02 10:23:43;;;;;;;;;;;23.50;45.30;;;;;;4991955;28;78141;-66
2021/06/02 10:26:16;;;;;;;;;;;23.80;44.60;;;;;;4991568;28;75171;-66
2021/06/02 10:28:43;;;;;;;;;;;23.70;45.60;;;;;;4991550;28;78308;-66
2021/06/02 10:31:10;;;;;;;;;;;23.90;44.90;;;;;;4993328;28;75032;-67
2021/06/02 10:33:35;;;;;;;;;;;24.30;44.50;;;;;;4991560;28;77349;-66
2021/06/02 10:36:04;;;;;;;;;;;24.60;43.50;;;;;;4991379;28;76617;-67
2021/06/02 10:38:31;;;;;;;;;;;24.70;43.10;;;;;;4991649;28;75690;-67
2021/06/02 10:40:58;;;;;;;;;;;24.60;43.50;;;;;;4993165;28;75374;-67
2021/06/02 10:43:31;;;;;;;;;;;24.90;42.10;;;;;;4992682;28;75628;-67
2021/06/02 10:46:00;;;;;;;;;;;25.00;43.10;;;;;;4991645;28;77410;-67
2021/06/02 10:48:45;;;;;;;;;;;25.00;42.90;;;;;;4993247;28;75146;-68
2021/06/02 10:51:39;;;;;;;;;;;25.20;43.00;;;;;;4986901;28;76270;-67
2021/06/02 10:54:07;;;;;;;;;;;25.30;41.30;;;;;;4982284;28;78086;-66
2021/06/02 10:56:33;;;;;;;;;;;25.50;42.90;;;;;;4990898;28;76376;-67
2021/06/02 10:59:00;;;;;;;;;;;26.10;42.30;;;;;;4992829;28;75284;-67
2021/06/02 11:01:27;;;;;;;;;;;26.40;39.90;;;;;;4991438;28;74433;-68
2021/06/02 11:04:11;;;;;;;;;;;26.40;40.20;;;;;;4991570;28;77920;-67
2021/06/02 11:06:37;;;;;;;;;;;26.50;41.00;;;;;;4990835;28;77522;-68
2021/06/02 11:09:04;;;;;;;;;;;26.50;39.60;;;;;;4988997;28;76965;-67
2021/06/02 11:11:30;;;;;;;;;;;26.10;39.70;;;;;;4976037;28;76514;-67
2021/06/02 11:14:14;;;;;;;;;;;25.80;40.90;;;;;;4971493;28;76327;-68
2021/06/02 11:16:41;;;;;;;;;;;25.80;40.30;;;;;;4972989;28;75563;-68
2021/06/02 11:19:14;;;;;;;;;;;26.50;39.60;;;;;;4972855;28;75075;-68
2021/06/02 11:21:51;;;;;;;;;;;26.60;38.90;;;;;;4972706;28;75344;-68
2021/06/02 11:24:36;;;;;;;;;;;26.80;39.40;;;;;;4972736;28;75585;-68
2021/06/02 11:27:08;;;;;;;;;;;27.10;38.70;;;;;;4977767;28;75259;-68
2021/06/02 11:29:33;;;;;;;;;;;27.20;37.60;;;;;;4992425;28;75207;-68
2021/06/02 11:32:13;;;;;;;;;;;28.00;36.90;;;;;;4992377;28;75067;-68
2021/06/02 11:34:39;;;;;;;;;;;28.20;34.60;;;;;;4990858;28;76416;-68
2021/06/02 11:37:05;;;;;;;;;;;27.60;36.80;;;;;;4990779;28;74702;-68
2021/06/02 11:39:31;;;;;;;;;;;28.20;36.40;;;;;;4992055;28;74913;-68
2021/06/02 11:41:58;;;;;;;;;;;30.30;31.90;;;;;;4990905;28;75694;-67
2021/06/02 11:44:27;;;;;;;;;;;31.90;30.50;;;;;;4992528;28;74475;-67
2021/06/02 11:46:53;;;;;;;;;;;33.80;28.80;;;;;;4992165;28;75349;-67
2021/06/02 11:49:22;;;;;;;;;;;34.40;27.40;;;;;;4991047;28;75419;-68
2021/06/02 11:51:48;;;;;;;;;;;32.60;29.30;;;;;;4990487;28;78775;-67
2021/06/02 11:54:14;;;;;;;;;;;31.90;29.60;;;;;;4990726;28;76178;-68
2021/06/02 11:56:39;;;;;;;;;;;33.80;29.10;;;;;;4992064;28;75285;-66
2021/06/02 11:59:05;;;;;;;;;;;35.90;25.00;;;;;;4990372;28;77641;-67
2021/06/02 12:01:31;;;;;;;;;;;37.00;24.90;;;;;;4990922;28;75432;-67
2021/06/02 12:03:57;;;;;;;;;;;38.30;23.10;;;;;;4992049;28;75178;-67
2021/06/02 12:06:33;;;;;;;;;;;38.60;23.10;;;;;;4990803;28;77378;-68
2021/06/02 12:09:09;;;;;;;;;;;37.30;22.20;;;;;;4990780;28;77047;-67
2021/06/02 12:11:35;;;;;;;;;;;36.80;25.10;;;;;;4990837;28;75811;-67
2021/06/02 12:14:01;;;;;;;;;;;37.70;21.70;;;;;;4980932;28;77079;-67
2021/06/02 12:16:27;;;;;;;;;;;38.60;21.80;;;;;;4970941;28;77026;-67
2021/06/02 12:18:57;;;;;;;;;;;38.60;22.30;;;;;;4970233;28;77629;-67
2021/06/02 12:21:29;;;;;;;;;;;37.70;23.10;;;;;;4972324;28;75710;-67
2021/06/02 12:24:00;;;;;;;;;;;37.40;24.30;;;;;;4972256;28;75257;-67
2021/06/02 12:26:30;;;;;;;;;;;38.30;23.60;;;;;;4971576;28;74916;-68
2021/06/02 12:28:57;;;;;;;;;;;40.10;22.40;;;;;;4972665;28;75903;-69
2021/06/02 12:31:43;;;;;;;;;;;41.80;20.90;;;;;;4970823;28;75412;-71
2021/06/02 12:34:08;;;;;;;;;;;43.00;20.00;;;;;;4971681;28;74890;-69
2021/06/02 12:36:34;;;;;;;;;;;44.10;19.10;;;;;;4970368;28;75257;-69
2021/06/02 12:39:02;;;;;;;;;;;44.40;19.40;;;;;;4969744;28;76315;-68
2021/06/02 12:41:27;;;;;;;;;;;42.90;18.80;;;;;;4972159;28;74531;-68
2021/06/02 12:43:53;;;;;;;;;;;40.40;21.30;;;;;;4969618;28;76223;-69
2021/06/02 12:46:19;;;;;;;;;;;39.30;21.70;;;;;;4970233;28;75171;-69
2021/06/02 12:48:45;;;;;;;;;;;40.90;20.30;;;;;;4972100;28;74541;-68
2021/06/02 12:51:18;;;;;;;;;;;42.70;17.20;;;;;;4971149;28;76384;-69
2021/06/02 12:53:45;;;;;;;;;;;43.80;16.30;;;;;;4974069;28;77880;-69
2021/06/02 12:56:12;;;;;;;;;;;44.50;17.30;;;;;;4973726;28;74620;-69
2021/06/02 12:58:38;;;;;;;;;;;45.50;17.80;;;;;;4973741;28;76922;-70
2021/06/02 13:01:14;;;;;;;;;;;46.00;17.30;;;;;;4975275;28;75096;-69
2021/06/02 13:03:43;;;;;;;;;;;44.40;17.20;;;;;;4975487;28;74613;-69
2021/06/02 13:06:13;;;;;;;;;;;42.30;17.80;;;;;;4975291;28;74511;-71
2021/06/02 13:08:39;;;;;;;;;;;41.10;19.90;;;;;;4973299;28;76469;-70
2021/06/02 13:11:06;;;;;;;;;;;38.90;21.10;;;;;;4973233;28;75352;-70
2021/06/02 13:13:32;;;;;;;;;;;36.70;21.80;;;;;;4972607;28;76331;-70
2021/06/02 13:15:58;;;;;;;;;;;35.90;23.90;;;;;;4973281;28;77245;-68
2021/06/02 13:18:28;;;;;;;;;;;37.50;21.70;;;;;;4975000;28;75228;-70
2021/06/02 13:20:54;;;;;;;;;;;38.40;19.50;;;;;;4973550;28;76487;-68
2021/06/02 13:23:20;;;;;;;;;;;36.40;21.20;;;;;;4974862;28;75277;-69
2021/06/02 13:25:56;;;;;;;;;;;35.40;22.40;;;;;;4975122;28;74540;-70
2021/06/02 13:28:22;;;;;;;;;;;34.30;23.80;;;;;;4974894;28;74579;-70
2021/06/02 13:30:47;;;;;;;;;;;33.70;24.90;;;;;;4973410;28;75864;-70
2021/06/02 13:33:14;;;;;;;;;;;33.70;24.40;;;;;;4973393;28;75687;-70
2021/06/02 13:35:41;;;;;;;;;;;33.60;24.80;;;;;;4974813;28;75739;-70
2021/06/02 13:38:07;;;;;;;;;;;37.10;21.50;;;;;;4973179;28;75448;-70
2021/06/02 13:40:40;;;;;;;;;;;40.70;19.10;;;;;;4973541;28;78340;-69
2021/06/02 13:43:17;;;;;;;;;;;43.40;17.70;;;;;;4972883;28;77648;-70
2021/06/02 13:45:51;;;;;;;;;;;45.40;16.40;;;;;;4973163;28;75858;-70
2021/06/02 13:48:20;;;;;;;;;;;45.60;15.40;;;;;;4973086;28;76772;-69
2021/06/02 13:50:46;;;;;;;;;;;45.50;16.00;;;;;;4974863;28;74689;-69
2021/06/02 13:53:12;;;;;;;;;;;46.30;16.30;;;;;;4974247;28;75206;-71
2021/06/02 13:55:38;;;;;;;;;;;47.60;15.80;;;;;;4973158;28;76705;-70
2021/06/02 13:58:13;;;;;;;;;;;48.80;15.60;;;;;;4972624;28;76129;-70
2021/06/02 14:00:41;;;;;;;;;;;46.50;14.60;;;;;;4972859;28;76507;-71
2021/06/02 14:03:06;;;;;;;;;;;46.40;14.90;;;;;;4972201;28;77007;-70
2021/06/02 14:05:32;;;;;;;;;;;46.30;14.80;;;;;;4973834;28;74545;-69
2021/06/02 14:07:58;;;;;;;;;;;46.60;15.10;;;;;;4972969;28;75410;-68
2021/06/02 14:10:23;;;;;;;;;;;46.80;14.90;;;;;;4974295;28;75217;-69
2021/06/02 14:12:49;;;;;;;;;;;47.10;14.70;;;;;;4972653;28;75221;-68
2021/06/02 14:15:14;;;;;;;;;;;47.80;15.10;;;;;;4972757;28;74635;-69
2021/06/02 14:17:40;;;;;;;;;;;48.50;13.50;;;;;;4972546;28;75165;-69
2021/06/02 14:20:06;;;;;;;;;;;48.90;13.30;;;;;;4972579;28;75980;-70
2021/06/02 14:22:35;;;;;;;;;;;47.90;14.50;;;;;;4973999;28;74465;-67
2021/06/02 14:25:01;;;;;;;;;;;47.70;14.20;;;;;;4972515;28;75399;-68
2021/06/02 14:27:26;;;;;;;;;;;48.20;14.70;;;;;;4974243;28;74570;-68
2021/06/02 14:29:52;;;;;;;;;;;48.70;13.60;;;;;;4973944;28;75065;-68
2021/06/02 14:32:18;;;;;;;;;;;48.90;14.90;;;;;;4972292;28;77378;-68
2021/06/02 14:34:43;;;;;;;;;;;49.90;14.30;;;;;;4972106;28;76085;-66
2021/06/02 14:37:09;;;;;;;;;;;50.60;14.30;;;;;;4972433;28;75910;-66